Portada
METAR-TAF:

METAR-TAF

Aeropuertos :

Tongatapu, Tonga

Aeropuerto Internacional Fua'amotu

latitud: 21-14S, longitud: 175-09W, altitud: 38 m

Observación

El informe se hizo hace 38 minutos, a las 20:00 UTC
Viento 7 kt del sur-sureste
Temperatura 27°C
Humedad 79%
Presión 1014 hPa
Visibilidad 10 km o más
Nubes dispersas a una altura de 1700 ft

METAR: NFTF 272000Z 15007KT 9999 SCT017 27/23 Q1014

Hora: 09:38 (20:38 UTC)

Pronóstico

El informe se hizo hace 3 horas y 21 minutos, a las 17:17 UTC
Pronóstico válido del 27 a las 18 UTC al 28 a las 18 UTC
Viento 3 kt con dirección variable
Visibilidad 10 km o más
Escasas nubes a una altura de 1600 ft
Evolucionando progresivamente
del 27 a las 21 UTC al 27 a las 23 UTC
Viento 13 kt del este-sureste
Evolucionando progresivamente
del 28 a las 04 UTC al 28 a las 06 UTC
Viento 3 kt con dirección variable

TAF: NFTF 271717Z 2718/2818 VRB03KT 9999 FEW016 BECMG 2721/2723 12013KT BECMG 2804/2806 VRB03KT

Observaciones y pronósticos meteorológicos de más de 4000 aeropuertos (mensajes METAR y TAF).

Los puntos amarillos y rojos representan las estaciones disponibles.

Ponga el ratón en el punto deseado para ver el nombre de la estación.

Haga clic para ver las observaciones y los pronósticos meteorológicos.

Para cambiar el mapa : haga clic en los botones verdes con una cruz de color negro para hacer un zoom, en el botón verde con un guión para alejar o en las flechas verdes para mapas adyacentes.


METAR-TAF: